createdAt,value
2018-06-23T00:03:45.540Z,59.5
2018-06-23T00:08:42.537Z,59.7
2018-06-23T00:13:40.249Z,59.7
2018-06-23T00:18:36.998Z,59.5
2018-06-23T00:23:34.428Z,59.6
2018-06-23T00:28:31.474Z,59.5
2018-06-23T00:33:28.916Z,59.3
2018-06-23T00:38:26.098Z,59.2
2018-06-23T00:43:23.256Z,59
2018-06-23T00:48:20.733Z,58.7
2018-06-23T00:53:17.649Z,58.2
2018-06-23T00:58:14.987Z,57.6
2018-06-23T01:03:12.241Z,57.9
2018-06-23T01:08:09.063Z,58.4
2018-06-23T01:13:06.290Z,57.9
2018-06-23T01:18:03.768Z,58.4
2018-06-23T01:23:00.942Z,58.4
2018-06-23T01:27:58.190Z,58.5
2018-06-23T01:32:55.277Z,58.6
2018-06-23T01:37:52.536Z,58.7
2018-06-23T01:42:49.614Z,59
2018-06-23T01:47:46.948Z,58.7
2018-06-23T01:52:44.307Z,58.8
2018-06-23T01:57:41.564Z,58.8
2018-06-23T02:02:38.835Z,58.6
2018-06-23T02:07:36.067Z,58.4
2018-06-23T02:12:33.336Z,57.9
2018-06-23T02:17:30.449Z,57.6
2018-06-23T02:22:27.726Z,57.6
2018-06-23T02:27:24.748Z,57.5
2018-06-23T02:32:21.888Z,57.4
2018-06-23T02:37:19.434Z,57.4
2018-06-23T02:42:16.652Z,57.5
2018-06-23T02:47:14.026Z,57.6
2018-06-23T02:52:10.931Z,57.6
2018-06-23T02:57:08.497Z,57.6
2018-06-23T03:02:05.564Z,57.8
2018-06-23T03:07:02.927Z,57.8
2018-06-23T03:12:00.066Z,58.3
2018-06-23T03:16:57.825Z,58.3
2018-06-23T03:21:54.912Z,58.6
2018-06-23T03:26:52.050Z,59
2018-06-23T03:31:48.767Z,59.1
2018-06-23T03:36:46.121Z,59.3
2018-06-23T03:41:43.511Z,59.5
2018-06-23T03:46:40.593Z,59.5
2018-06-23T03:51:38.165Z,59.5
2018-06-23T03:56:35.296Z,59.5
2018-06-23T04:01:32.300Z,59.4
2018-06-23T04:06:29.628Z,59.6
2018-06-23T04:11:26.689Z,59.5
2018-06-23T04:16:24.078Z,59.4
2018-06-23T04:21:21.506Z,58.8
2018-06-23T04:26:18.866Z,58.7
2018-06-23T04:31:21.917Z,58.5
2018-06-23T04:36:17.775Z,58
2018-06-23T04:41:14.795Z,57.6
2018-06-23T04:46:11.671Z,57.1
2018-06-23T04:51:09.341Z,56.7
2018-06-23T04:56:06.715Z,57.1
2018-06-23T05:01:03.642Z,57
2018-06-23T05:06:01.007Z,57.6
2018-06-23T05:10:58.040Z,57.8
2018-06-23T05:15:55.487Z,58.1
2018-06-23T05:20:52.641Z,58.1
2018-06-23T05:25:49.784Z,58.6
2018-06-23T05:30:50.861Z,58.9
2018-06-23T05:35:48.497Z,59.3
2018-06-23T05:40:44.584Z,59.7
2018-06-23T05:45:41.632Z,60.1
2018-06-23T05:50:38.742Z,60.5
2018-06-23T05:55:36.204Z,60.8
2018-06-23T06:00:33.536Z,61.5
2018-06-23T06:05:30.781Z,61.2
2018-06-23T06:10:28.004Z,61.4
2018-06-23T06:15:25.050Z,62.2
2018-06-23T06:20:22.073Z,62.1
2018-06-23T06:25:19.442Z,62.2
2018-06-23T06:30:22.789Z,62.8
2018-06-23T06:35:18.609Z,62.7
2018-06-23T06:40:15.733Z,62.4
2018-06-23T06:45:12.911Z,62.5
2018-06-23T06:50:10.350Z,62.9
2018-06-23T06:55:07.566Z,63
2018-06-23T07:00:04.902Z,62.6
2018-06-23T07:05:02.285Z,61.4
2018-06-23T07:09:59.657Z,61.4
2018-06-23T07:14:56.780Z,61.8
2018-06-23T07:19:54.155Z,61.4
2018-06-23T07:24:51.230Z,61.2
2018-06-23T07:29:47.829Z,60.8
2018-06-23T07:34:45.077Z,59.4
2018-06-23T07:39:42.251Z,58.3
2018-06-23T07:44:39.691Z,58.7
2018-06-23T07:49:37.090Z,57.7
2018-06-23T07:54:34.265Z,56.5
2018-06-23T07:59:31.545Z,56.5
2018-06-23T08:04:28.701Z,56.3
2018-06-23T08:09:26.124Z,56.6
2018-06-23T08:14:23.426Z,55.7
2018-06-23T08:19:20.838Z,55.2
2018-06-23T08:24:17.818Z,53.9
2018-06-23T08:29:15.472Z,52.6
2018-06-23T08:34:12.885Z,52.1
2018-06-23T08:39:10.308Z,52.9
2018-06-23T08:44:07.680Z,51.8
2018-06-23T08:49:05.146Z,51.9
2018-06-23T08:54:03.485Z,51.4
2018-06-23T08:59:00.351Z,50.8
2018-06-23T09:03:57.530Z,50.7
2018-06-23T09:08:55.230Z,50.8
2018-06-23T09:13:52.574Z,51
2018-06-23T09:18:50.120Z,50.2
2018-06-23T09:23:47.639Z,49
2018-06-23T09:28:45.277Z,48.8
2018-06-23T09:33:42.676Z,48.9
2018-06-23T09:38:40.298Z,47.7
2018-06-23T09:43:37.824Z,47.9
2018-06-23T09:48:34.734Z,47.9
2018-06-23T09:53:32.147Z,45.8
2018-06-23T09:58:29.729Z,46.3
2018-06-23T10:03:27.024Z,45.4
2018-06-23T10:08:24.500Z,46.1
2018-06-23T10:13:21.720Z,45.7
2018-06-23T10:18:19.145Z,46.1
2018-06-23T10:23:16.531Z,45.6
2018-06-23T10:28:14.067Z,45.9
2018-06-23T10:33:11.415Z,45.5
2018-06-23T10:38:09.247Z,45
2018-06-23T10:43:06.452Z,44.7
2018-06-23T10:48:03.838Z,44.6
2018-06-23T10:53:01.180Z,44
2018-06-23T10:57:58.748Z,43.5
2018-06-23T11:02:55.874Z,43.3
2018-06-23T11:07:53.393Z,42.7
2018-06-23T11:12:50.847Z,41.5
2018-06-23T11:17:47.849Z,41.8
2018-06-23T11:22:45.064Z,42.1
2018-06-23T11:27:42.414Z,42.1
2018-06-23T11:32:39.947Z,41.3
2018-06-23T11:37:37.416Z,40.6
2018-06-23T11:42:34.804Z,40.9
2018-06-23T11:47:32.339Z,39.5
2018-06-23T11:52:29.749Z,39.7
2018-06-23T11:57:27.125Z,38.6
2018-06-23T12:02:24.491Z,39.3
2018-06-23T12:07:22.570Z,38.3
2018-06-23T12:12:19.589Z,37.7
2018-06-23T12:17:16.864Z,37.2
2018-06-23T12:22:14.327Z,37
2018-06-23T12:27:12.051Z,37
2018-06-23T12:32:09.607Z,37.1
2018-06-23T12:37:06.756Z,35.8
2018-06-23T12:42:04.308Z,35.3
2018-06-23T12:47:01.887Z,35
2018-06-23T12:52:00.154Z,35.2
2018-06-23T12:56:57.653Z,35.1
2018-06-23T13:01:54.972Z,34.5
2018-06-23T13:06:52.619Z,34.5
2018-06-23T13:11:50.471Z,33.3
2018-06-23T13:16:48.498Z,30.9
2018-06-23T13:21:46.477Z,30.8
2018-06-23T13:26:43.970Z,31.2
2018-06-23T13:31:41.317Z,30.8
2018-06-23T13:36:38.506Z,31.3
2018-06-23T13:41:36.004Z,31.5
2018-06-23T13:46:33.410Z,31.4
2018-06-23T13:51:30.673Z,32.5
2018-06-23T13:56:28.142Z,32.5
2018-06-23T14:01:25.334Z,32
2018-06-23T14:06:23.007Z,32.3
2018-06-23T14:11:20.626Z,32.8
2018-06-23T14:16:17.755Z,33.6
2018-06-23T14:21:15.090Z,33.8
2018-06-23T14:26:12.457Z,33.3
2018-06-23T14:31:09.602Z,33.5
2018-06-23T14:36:06.709Z,33.6
2018-06-23T14:41:04.625Z,33.8
2018-06-23T14:46:02.014Z,33.7
2018-06-23T14:50:59.088Z,34
2018-06-23T14:55:56.846Z,34
2018-06-23T15:00:54.236Z,33.8
2018-06-23T15:05:51.544Z,34
2018-06-23T15:10:48.862Z,34.4
2018-06-23T15:15:46.243Z,34
2018-06-23T15:20:43.636Z,34.2
2018-06-23T15:25:41.219Z,33.9
2018-06-23T15:30:38.429Z,34.2
2018-06-23T15:35:36.023Z,33.7
2018-06-23T15:40:33.571Z,34
2018-06-23T15:45:30.961Z,33.8
2018-06-23T15:50:28.286Z,34.1
2018-06-23T15:55:26.287Z,34.3
2018-06-23T16:00:23.544Z,34.1
2018-06-23T16:05:20.921Z,34.1
2018-06-23T16:10:17.524Z,34.5
2018-06-23T16:15:14.810Z,35
2018-06-23T16:20:11.996Z,34.8
2018-06-23T16:25:09.414Z,35.4
2018-06-23T16:30:06.578Z,35.1
2018-06-23T16:35:03.753Z,35.7
2018-06-23T16:40:02.367Z,36.3
2018-06-23T16:44:59.373Z,36
2018-06-23T16:49:56.649Z,36.2
2018-06-23T16:54:54.503Z,36.6
2018-06-23T16:59:57.599Z,36.8
2018-06-23T17:04:53.741Z,37
2018-06-23T17:09:50.783Z,37.2
2018-06-23T17:14:47.892Z,37
2018-06-23T17:19:45.089Z,37.2
2018-06-23T17:24:42.512Z,37.5
2018-06-23T17:29:39.892Z,37.9
2018-06-23T17:34:43.399Z,37.8
2018-06-23T17:39:39.073Z,37.7
2018-06-23T17:44:36.241Z,38.1
2018-06-23T17:49:33.638Z,38.5
2018-06-23T17:54:30.798Z,38.6
2018-06-23T17:59:28.023Z,38.9
2018-06-23T18:04:25.341Z,39.3
2018-06-23T18:09:23.449Z,39.5
2018-06-23T18:14:20.677Z,39.5
2018-06-23T18:19:17.856Z,39.8
2018-06-23T18:24:15.642Z,39.9
2018-06-23T18:29:12.670Z,40
2018-06-23T18:34:09.985Z,40.2
2018-06-23T18:39:07.282Z,40.2
2018-06-23T18:44:04.631Z,40.5
2018-06-23T18:49:02.290Z,40.7
2018-06-23T18:53:59.536Z,41
2018-06-23T18:58:56.700Z,41.3
2018-06-23T19:03:54.024Z,41.4
2018-06-23T19:08:51.301Z,41.6
2018-06-23T19:13:48.632Z,41.8
2018-06-23T19:18:45.595Z,42.1
2018-06-23T19:23:43.082Z,42.1
2018-06-23T19:28:40.388Z,42.3
2018-06-23T19:33:37.676Z,42.2
2018-06-23T19:38:35.078Z,42.3
2018-06-23T19:43:32.302Z,42.5
2018-06-23T19:48:29.410Z,42.5
2018-06-23T19:53:27.202Z,42.6
2018-06-23T19:58:24.460Z,42.7
2018-06-23T20:03:21.791Z,43
2018-06-23T20:08:19.101Z,43
2018-06-23T20:13:16.442Z,43.2
2018-06-23T20:18:13.643Z,43.3
2018-06-23T20:23:11.183Z,43.4
2018-06-23T20:28:08.359Z,43.7
2018-06-23T20:33:05.947Z,44
2018-06-23T20:38:02.735Z,44
2018-06-23T20:43:00.357Z,44.2
2018-06-23T20:47:57.671Z,44.1
2018-06-23T20:52:54.600Z,44.5
2018-06-23T20:57:51.746Z,44.3
2018-06-23T21:02:48.881Z,44.2
2018-06-23T21:07:46.095Z,44.1
2018-06-23T21:12:43.798Z,44.3
2018-06-23T21:17:41.030Z,44.3
2018-06-23T21:22:38.397Z,44.3
2018-06-23T21:27:36.036Z,44.4
2018-06-23T21:32:33.444Z,44.4
2018-06-23T21:37:29.666Z,44.6
2018-06-23T21:42:27.278Z,44.6
2018-06-23T21:47:24.187Z,44.7
2018-06-23T21:52:21.630Z,44.7
2018-06-23T21:57:19.101Z,44.9
2018-06-23T22:02:16.308Z,45
2018-06-23T22:07:13.449Z,44.9
2018-06-23T22:12:17.864Z,45
2018-06-23T22:17:13.418Z,44.8
2018-06-23T22:22:10.570Z,45
2018-06-23T22:27:07.788Z,45.1
2018-06-23T22:32:04.615Z,45.2
2018-06-23T22:37:02.282Z,45.3
2018-06-23T22:41:59.477Z,45.5
2018-06-23T22:46:57.156Z,45.5
2018-06-23T22:51:54.572Z,45.4
2018-06-23T22:56:52.206Z,45.4
2018-06-23T23:01:49.921Z,45.6
2018-06-23T23:06:47.297Z,45.6
2018-06-23T23:11:44.573Z,45.6
2018-06-23T23:16:48.344Z,45.8
2018-06-23T23:21:44.156Z,45.9
2018-06-23T23:26:41.306Z,46
2018-06-23T23:31:38.559Z,46.4
2018-06-23T23:36:35.851Z,46.9
2018-06-23T23:41:33.249Z,46.7
2018-06-23T23:46:30.837Z,46.5
2018-06-23T23:51:28.113Z,46.4
2018-06-23T23:56:25.601Z,46.5
